Terminal Aerodrome Forecast
Issued by NWS Tulsa, OK

Home | Current Version | Previous Version | Text Only | Print | Product List | Glossary On
Versions: 1 2 3 4 5 6 7 8 9 10 11 12 13
000
FTUS44 KTSA 270300 AAA
TAFTUL
TAF AMD
KTUL 270318Z 2703/2724 35015G22KT P6SM SCT100 SCT250
     FM270500 34010KT P6SM SCT100
     FM271200 VRB03KT P6SM SCT100
     FM271900 16009KT P6SM SCT150=

USA.gov is the U.S. government's official web portal to all federal, state and local government web resources and services.